Map

Track Data

SID SEASON NUMBER BASIN SUBBASIN NAME ISO_TIME NATURE LAT LON WMO_WIND WMO_PRES WMO_AGENCY TRACK_TYPE DIST2LAND LANDFALL IFLAG USA_AGENCY USA_ATCF_ID USA_LAT USA_LON USA_RECORD USA_STATUS USA_WIND USA_PRES USA_SSHS USA_R34_NE USA_R34_SE USA_R34_SW USA_R34_NW USA_R50_NE USA_R50_SE USA_R50_SW USA_R50_NW USA_R64_NE USA_R64_SE USA_R64_SW USA_R64_NW USA_POCI USA_ROCI USA_RMW USA_EYE TOKYO_LAT TOKYO_LON TOKYO_GRADE TOKYO_WIND TOKYO_PRES TOKYO_R50_DIR TOKYO_R50_LONG TOKYO_R50_SHORT TOKYO_R30_DIR TOKYO_R30_LONG TOKYO_R30_SHORT TOKYO_LAND CMA_LAT CMA_LON CMA_CAT CMA_WIND CMA_PRES HKO_LAT HKO_LON HKO_CAT HKO_WIND HKO_PRES NEWDELHI_LAT NEWDELHI_LON NEWDELHI_GRADE NEWDELHI_WIND NEWDELHI_PRES NEWDELHI_CI NEWDELHI_DP NEWDELHI_POCI REUNION_LAT REUNION_LON REUNION_TYPE REUNION_WIND REUNION_PRES REUNION_TNUM REUNION_CI REUNION_RMW REUNION_R34_NE REUNION_R34_SE REUNION_R34_SW REUNION_R34_NW REUNION_R50_NE REUNION_R50_SE REUNION_R50_SW REUNION_R50_NW REUNION_R64_NE REUNION_R64_SE REUNION_R64_SW REUNION_R64_NW BOM_LAT BOM_LON BOM_TYPE BOM_WIND BOM_PRES BOM_TNUM BOM_CI BOM_RMW BOM_R34_NE BOM_R34_SE BOM_R34_SW BOM_R34_NW BOM_R50_NE BOM_R50_SE BOM_R50_SW BOM_R50_NW BOM_R64_NE BOM_R64_SE BOM_R64_SW BOM_R64_NW BOM_ROCI BOM_POCI BOM_EYE BOM_POS_METHOD BOM_PRES_METHOD NADI_LAT NADI_LON NADI_CAT NADI_WIND NADI_PRES WELLINGTON_LAT WELLINGTON_LON WELLINGTON_WIND WELLINGTON_PRES DS824_LAT DS824_LON DS824_STAGE DS824_WIND DS824_PRES TD9636_LAT TD9636_LON TD9636_STAGE TD9636_WIND TD9636_PRES TD9635_LAT TD9635_LON TD9635_WIND TD9635_PRES TD9635_ROCI NEUMANN_LAT NEUMANN_LON NEUMANN_CLASS NEUMANN_WIND NEUMANN_PRES MLC_LAT MLC_LON MLC_CLASS MLC_WIND MLC_PRES USA_GUST BOM_GUST BOM_GUST_PER REUNION_GUST REUNION_GUST_PER USA_SEAHGT USA_SEARAD_NE USA_SEARAD_SE USA_SEARAD_SW USA_SEARAD_NW STORM_SPEED STORM_DIR
1855263N24306 1855 13 NA NA NOT_NAMED 1855-09-19 12:00:00 TS 24.0000 -54.0000 main 1354 1342 _____________O -1 24.0000 -54.0000 TS 55 8 317
1855263N24306 1855 13 NA NA NOT_NAMED 1855-09-19 15:00:00 TS 24.3001 -54.2997 main 1342 1331 _____________P -1 24.3001 -54.2997 TS 55 8 318
1855263N24306 1855 13 NA NA NOT_NAMED 1855-09-19 18:00:00 TS 24.6000 -54.6000 main 1331 1316 _____________O -1 24.6000 -54.6000 TS 55 8 318
1855263N24306 1855 13 NA NA NOT_NAMED 1855-09-19 21:00:00 TS 24.8999 -54.9001 main 1322 1314 _____________P -1 24.8999 -54.9001 TS 55 8 318
1855263N24306 1855 13 NA NA NOT_NAMED 1855-09-20 00:00:00 TS 25.2000 -55.2000 main 1314 1302 _____________O -1 25.2000 -55.2000 TS 55 8 318
1855263N24306 1855 13 NA NA NOT_NAMED 1855-09-20 03:00:00 TS 25.5000 -55.5076 main 1308 1297 _____________P -1 25.5000 -55.5076 TS 55 8 318
1855263N24306 1855 13 NA NA NOT_NAMED 1855-09-20 06:00:00 TS 25.8000 -55.8000 main 1304 1301 _____________O -1 25.8000 -55.8000 TS 55 8 320
1855263N24306 1855 13 NA NA NOT_NAMED 1855-09-20 09:00:00 TS 26.0999 -56.0651 main 1301 1300 _____________P -1 26.0999 -56.0651 TS 55 8 323
1855263N24306 1855 13 NA NA NOT_NAMED 1855-09-20 12:00:00 TS 26.4000 -56.3000 main 1307 1307 _____________O -1 26.4000 -56.3000 TS 55 7 326
1855263N24306 1855 13 NA NA NOT_NAMED 1855-09-20 15:00:00 TS 26.7000 -56.5151 main 1315 1315 _____________P -1 26.7000 -56.5151 TS 55 7 329
1855263N24306 1855 13 NA NA NOT_NAMED 1855-09-20 18:00:00 TS 27.0000 -56.7000 main 1324 1324 _____________O -1 27.0000 -56.7000 TS 55 7 333
1855263N24306 1855 13 NA NA NOT_NAMED 1855-09-20 21:00:00 TS 27.3000 -56.8576 main 1334 1334 _____________P -1 27.3000 -56.8576 TS 55 7 336
1855263N24306 1855 13 NA NA NOT_NAMED 1855-09-21 00:00:00 TS 27.6000 -57.0000 main 1352 1352 _____________O -1 27.6000 -57.0000 TS 55 7 337
1855263N24306 1855 13 NA NA NOT_NAMED 1855-09-21 03:00:00 TS 27.9075 -57.1501 main 1364 1364 _____________P -1 27.9075 -57.1501 TS 55 7 336
1855263N24306 1855 13 NA NA NOT_NAMED 1855-09-21 06:00:00 TS 28.2000 -57.3000 main 1383 1383 _____________O -1 28.2000 -57.3000 TS 55 6 334
1855263N24306 1855 13 NA NA NOT_NAMED 1855-09-21 09:00:00 TS 28.4425 -57.4427 main 1394 1394 _____________P -1 28.4425 -57.4427 TS 55 6 332
1855263N24306 1855 13 NA NA NOT_NAMED 1855-09-21 12:00:00 TS 28.7000 -57.6000 main 1409 1409 _____________O -1 28.7000 -57.6000 TS 55 7 332
1855263N24306 1855 13 NA NA NOT_NAMED 1855-09-21 15:00:00 TS 29.0425 -57.7999 main 1424 1424 _____________P -1 29.0425 -57.7999 TS 55 8 333
1855263N24306 1855 13 NA NA NOT_NAMED 1855-09-21 18:00:00 TS 29.4000 -58.0000 main 1450 1450 _____________O -1 29.4000 -58.0000 TS 55 7 335
1855263N24306 1855 13 NA NA NOT_NAMED 1855-09-21 21:00:00 TS 29.7074 -58.1503 main 1468 1468 _____________P -1 29.7074 -58.1503 TS 55 7 337
1855263N24306 1855 13 NA NA NOT_NAMED 1855-09-22 00:00:00 TS 30.0000 -58.3000 main 1491 1491 _____________O -1 30.0000 -58.3000 TS 55 7 333
1855263N24306 1855 13 NA NA NOT_NAMED 1855-09-22 03:00:00 TS 30.3000 -58.5000 main 1510 1510 _____________P -1 30.3000 -58.5000 TS 55 7 330
1855263N24306 1855 13 NA NA NOT_NAMED 1855-09-22 06:00:00 TS 30.6000 -58.7000 main 1530 1511 _____________O -1 30.6000 -58.7000 TS 55 7 333
1855263N24306 1855 13 NA NA NOT_NAMED 1855-09-22 09:00:00 TS 30.9150 -58.8650 main 1511 1477 _____________P -1 30.9150 -58.8650 TS 55 7 337
1855263N24306 1855 13 NA NA NOT_NAMED 1855-09-22 12:00:00 TS 31.2000 -59.0000 main 1477 1452 _____________O -1 31.2000 -59.0000 TS 55 5 337
1855263N24306 1855 13 NA NA NOT_NAMED 1855-09-22 15:00:00 TS 31.4150 -59.1151 main 1452 1428 _____________P -1 31.4150 -59.1151 TS 55 4 337
1855263N24306 1855 13 NA NA NOT_NAMED 1855-09-22 18:00:00 TS 31.6000 -59.2000 main 1428 1407 _____________O -1 31.6000 -59.2000 TS 55 4 343
1855263N24306 1855 13 NA NA NOT_NAMED 1855-09-22 21:00:00 TS 31.8000 -59.2501 main 1404 1383 _____________P -1 31.8000 -59.2501 TS 55 4 348
1855263N24306 1855 13 NA NA NOT_NAMED 1855-09-23 00:00:00 TS 32.0000 -59.3000 main 1383 1359 _____________O -1 32.0000 -59.3000 TS 55 4 343
1855263N24306 1855 13 NA NA NOT_NAMED 1855-09-23 03:00:00 TS 32.2000 -59.3999 main 1359 1335 _____________P -1 32.2000 -59.3999 TS 55 4 337
1855263N24306 1855 13 NA NA NOT_NAMED 1855-09-23 06:00:00 TS 32.4000 -59.5000 main 1335 1310 _____________O -1 32.4000 -59.5000 TS 55 4 341
1855263N24306 1855 13 NA NA NOT_NAMED 1855-09-23 09:00:00 TS 32.5850 -59.5576 main 1310 1290 _____________P -1 32.5850 -59.5576 TS 55 4 348
1855263N24306 1855 13 NA NA NOT_NAMED 1855-09-23 12:00:00 TS 32.8000 -59.6000 main 1290 1258 _____________O -1 32.8000 -59.6000 TS 55 5 351
1855263N24306 1855 13 NA NA NOT_NAMED 1855-09-23 15:00:00 TS 33.0925 -59.6500 main 1258 1224 _____________P -1 33.0925 -59.6500 TS 55 6 352
1855263N24306 1855 13 NA NA NOT_NAMED 1855-09-23 18:00:00 TS 33.4000 -59.7000 main 1224 1203 _____________O -1 33.4000 -59.7000 TS 55 6 351
1855263N24306 1855 13 NA NA NOT_NAMED 1855-09-23 21:00:00 TS 33.6500 -59.7501 main 1189 1169 _____________P -1 33.6500 -59.7501 TS 55 5 351
1855263N24306 1855 13 NA NA NOT_NAMED 1855-09-24 00:00:00 TS 33.9000 -59.8000 main 1169 1138 _____________O -1 33.9000 -59.8000 TS 55 6 352
1855263N24306 1855 13 NA NA NOT_NAMED 1855-09-24 03:00:00 TS 34.2000 -59.8500 main 1138 1104 _____________P -1 34.2000 -59.8500 TS 55 6 352
1855263N24306 1855 13 NA NA NOT_NAMED 1855-09-24 06:00:00 TS 34.5000 -59.9000 main 1104 1079 _____________O -1 34.5000 -59.9000 TS 55 6 351
1855263N24306 1855 13 NA NA NOT_NAMED 1855-09-24 09:00:00 TS 34.7500 -59.9575 main 1069 1049 _____________P -1 34.7500 -59.9575 TS 55 5 351
1855263N24306 1855 13 NA NA NOT_NAMED 1855-09-24 12:00:00 TS 35.0000 -60.0000 main 1049 1018 _____________O -1 35.0000 -60.0000 TS 55 5 353
1855263N24306 1855 13 NA NA NOT_NAMED 1855-09-24 15:00:00 TS 35.2924 -60.0447 main 1018 988 _____________P -1 35.2924 -60.0447 TS 55 6 1
1855263N24306 1855 13 NA NA NOT_NAMED 1855-09-24 18:00:00 TS 35.6000 -60.0000 main 988 966 _____________O -1 35.6000 -60.0000 TS 55 7 21
1855263N24306 1855 13 NA NA NOT_NAMED 1855-09-24 21:00:00 TS 35.9002 -59.7655 main 966 950 _____________P -1 35.9002 -59.7655 TS 55 7 34
1855263N24306 1855 13 NA NA NOT_NAMED 1855-09-25 00:00:00 TS 36.2000 -59.5000 main 950 925 _____________O -1 36.2000 -59.5000 TS 55 7 28
1855263N24306 1855 13 NA NA NOT_NAMED 1855-09-25 03:00:00 TS 36.5074 -59.3698 main 925 901 _____________P -1 36.5074 -59.3698 TS 55 6 15
1855263N24306 1855 13 NA NA NOT_NAMED 1855-09-25 06:00:00 TS 36.8000 -59.3000 main 901 873 _____________O -1 36.8000 -59.3000 TS 55 6 6
1855263N24306 1855 13 NA NA NOT_NAMED 1855-09-25 09:00:00 TS 37.0723 -59.2945 main 873 860 _____________P -1 37.0723 -59.2945 TS 55 5 9
1855263N24306 1855 13 NA NA NOT_NAMED 1855-09-25 12:00:00 TS 37.3000 -59.2000 main 860 856 _____________O -1 37.3000 -59.2000 TS 55 990 5 42
1855263N24306 1855 13 NA NA NOT_NAMED 1855-09-25 15:00:00 TS 37.4653 -58.8451 main 863 863 _____________P -1 37.4653 -58.8451 TS 55 7 65
1855263N24306 1855 13 NA NA NOT_NAMED 1855-09-25 18:00:00 TS 37.6000 -58.4000 main 870 863 _____________O -1 37.6000 -58.4000 TS 55 7 66
1855263N24306 1855 13 NA NA NOT_NAMED 1855-09-25 21:00:00 TS 37.7498 -58.0423 main 872 856 _____________P -1 37.7498 -58.0423 TS 55 6 62
1855263N24306 1855 13 NA NA NOT_NAMED 1855-09-26 00:00:00 TS 37.9000 -57.7000 main 859 851 _____________O -1 37.9000 -57.7000 TS 55 6 61
1855263N24306 1855 13 NA NA NOT_NAMED 1855-09-26 03:00:00 TS 38.0499 -57.3499 main 860 845 _____________P -1 38.0499 -57.3499 TS 52 6 61
1855263N24306 1855 13 NA NA NOT_NAMED 1855-09-26 06:00:00 TS 38.2000 -57.0000 main 849 842 _____________O -1 38.2000 -57.0000 TS 50 6 60
1855263N24306 1855 13 NA NA NOT_NAMED 1855-09-26 09:00:00 TS 38.3572 -56.6649 main 838 838 _____________P -1 38.3572 -56.6649 TS 50 6 61
1855263N24306 1855 13 NA NA NOT_NAMED 1855-09-26 12:00:00 TS 38.5000 -56.3000 main 843 841 _____________O -1 38.5000 -56.3000 TS 50 7 67
1855263N24306 1855 13 NA NA NOT_NAMED 1855-09-26 15:00:00 TS 38.6149 -55.8724 main 849 848 _____________P -1 38.6149 -55.8724 TS 47 7 74
1855263N24306 1855 13 NA NA NOT_NAMED 1855-09-26 18:00:00 TS 38.7000 -55.4000 main 861 861 _____________O -1 38.7000 -55.4000 TS 45 8 79
1855263N24306 1855 13 NA NA NOT_NAMED 1855-09-26 21:00:00 TS 38.7574 -54.9073 main 873 869 _____________P -1 38.7574 -54.9073 TS 45 8 83
1855263N24306 1855 13 NA NA NOT_NAMED 1855-09-27 00:00:00 TS 38.8000 -54.4000 main 869 867 _____________O -1 38.8000 -54.4000 TS 45 8 83
1855263N24306 1855 13 NA NA NOT_NAMED 1855-09-27 03:00:00 TS 38.8498 -53.8999 main 867 856 _____________P -1 38.8498 -53.8999 TS 45 8 83
1855263N24306 1855 13 NA NA NOT_NAMED 1855-09-27 06:00:00 TS 38.9000 -53.4000 main 856 856 _____________O -1 38.9000 -53.4000 TS 45 7 88
1855263N24306 1855 13 NA NA NOT_NAMED 1855-09-27 09:00:00 TS 38.8812 -52.9649 main 856 847 _____________P -1 38.8812 -52.9649 TS 42 8 83
1855263N24306 1855 13 NA NA NOT_NAMED 1855-09-27 12:00:00 ET 39.0000 -52.4000 main 847 810 _____________O -1 39.0000 -52.4000 EX 40 12 64
1855263N24306 1855 13 NA NA NOT_NAMED 1855-09-27 15:00:00 ET 39.4330 -51.5266 main 812 763 _____________P -1 39.4330 -51.5266 EX 40 18 56
1855263N24306 1855 13 NA NA NOT_NAMED 1855-09-27 18:00:00 ET 40.0000 -50.5000 main 765 740 _____________O -1 40.0000 -50.5000 EX 40 19 56
1855263N24306 1855 13 NA NA NOT_NAMED 1855-09-27 21:00:00 ET 40.5009 -49.4329 main 743 726 _____________P -1 40.5009 -49.4329 EX 37 18 57
1855263N24306 1855 13 NA NA NOT_NAMED 1855-09-28 00:00:00 ET 41.0000 -48.5000 main 726 706 _____________O -1 41.0000 -48.5000 EX 35 15 49
1855263N24306 1855 13 NA NA NOT_NAMED 1855-09-28 03:00:00 ET 41.4984 -47.9226 main 706 682 _____________P -1 41.4984 -47.9226 EX 32 12 37
1855263N24306 1855 13 NA NA NOT_NAMED 1855-09-28 06:00:00 ET 42.0000 -47.5000 main 682 662 _____________O -1 42.0000 -47.5000 EX 30 12 34
1855263N24306 1855 13 NA NA NOT_NAMED 1855-09-28 09:00:00 ET 42.5011 -47.0275 main 668 657 _____________P -1 42.5011 -47.0275 EX 27 12 36
1855263N24306 1855 13 NA NA NOT_NAMED 1855-09-28 12:00:00 ET 43.0000 -46.5000 main 660 _____________O -1 43.0000 -46.5000 EX 25 13 38

About IBTrACS Database

This database is a web-friendly format of International Best Track Archive for Climate Stewardship (IBTrACS), a global best track data archive curated by NOAA dating back to 1842.

Updated: 2021-12-01